sensor_id;sensor_type;location;lat;lon;timestamp;pressure;altitude;pressure_sealevel;temperature;humidity
10466;BME280;5280;42.600;23.556;2023-04-10T00:00:29;93529.00;;;6.64;65.37
10466;BME280;5280;42.600;23.556;2023-04-10T00:02:57;93533.50;;;6.76;66.17
10466;BME280;5280;42.600;23.556;2023-04-10T00:05:25;93532.75;;;6.74;66.08
10466;BME280;5280;42.600;23.556;2023-04-10T00:07:52;93503.44;;;6.67;65.50
10466;BME280;5280;42.600;23.556;2023-04-10T00:10:19;93530.22;;;6.86;65.67
10466;BME280;5280;42.600;23.556;2023-04-10T00:12:48;93523.84;;;6.90;66.52
10466;BME280;5280;42.600;23.556;2023-04-10T00:15:15;93518.19;;;6.82;66.94
10466;BME280;5280;42.600;23.556;2023-04-10T00:17:42;93517.44;;;6.95;67.81
10466;BME280;5280;42.600;23.556;2023-04-10T00:20:09;93508.06;;;6.90;67.72
10466;BME280;5280;42.600;23.556;2023-04-10T00:22:36;93500.53;;;6.99;68.95
10466;BME280;5280;42.600;23.556;2023-04-10T00:25:04;93513.09;;;7.08;68.44
10466;BME280;5280;42.600;23.556;2023-04-10T00:27:31;93506.72;;;7.12;70.78
10466;BME280;5280;42.600;23.556;2023-04-10T00:29:59;93506.50;;;7.15;71.29
10466;BME280;5280;42.600;23.556;2023-04-10T00:32:26;93498.38;;;7.05;72.04
10466;BME280;5280;42.600;23.556;2023-04-10T00:34:53;93491.34;;;7.06;72.17
10466;BME280;5280;42.600;23.556;2023-04-10T00:37:20;93492.00;;;6.95;73.51
10466;BME280;5280;42.600;23.556;2023-04-10T00:39:47;93487.53;;;6.97;73.85
10466;BME280;5280;42.600;23.556;2023-04-10T00:42:13;93484.91;;;6.97;74.34
10466;BME280;5280;42.600;23.556;2023-04-10T00:44:40;93483.50;;;6.91;76.01
10466;BME280;5280;42.600;23.556;2023-04-10T00:47:08;93483.50;;;6.91;77.92
10466;BME280;5280;42.600;23.556;2023-04-10T00:49:35;93481.84;;;6.76;79.00
10466;BME280;5280;42.600;23.556;2023-04-10T00:52:02;93476.38;;;6.79;80.26
10466;BME280;5280;42.600;23.556;2023-04-10T00:54:30;93465.88;;;6.79;80.94
10466;BME280;5280;42.600;23.556;2023-04-10T00:56:57;93452.66;;;6.81;81.67
10466;BME280;5280;42.600;23.556;2023-04-10T00:59:24;93471.69;;;6.84;83.64
10466;BME280;5280;42.600;23.556;2023-04-10T01:01:51;93470.41;;;6.77;85.35
10466;BME280;5280;42.600;23.556;2023-04-10T01:04:20;93437.56;;;6.70;85.59
10466;BME280;5280;42.600;23.556;2023-04-10T01:06:57;93472.13;;;6.91;85.62
10466;BME280;5280;42.600;23.556;2023-04-10T01:09:34;93444.09;;;6.91;84.92
10466;BME280;5280;42.600;23.556;2023-04-10T01:12:10;93469.38;;;7.07;84.76
10466;BME280;5280;42.600;23.556;2023-04-10T01:14:47;93458.28;;;7.16;84.95
10466;BME280;5280;42.600;23.556;2023-04-10T01:17:20;93463.31;;;7.19;83.42
10466;BME280;5280;42.600;23.556;2023-04-10T01:20:01;93451.53;;;7.12;84.48
10466;BME280;5280;42.600;23.556;2023-04-10T01:22:34;93433.91;;;7.00;84.84
10466;BME280;5280;42.600;23.556;2023-04-10T01:25:18;93456.28;;;7.19;84.42
10466;BME280;5280;42.600;23.556;2023-04-10T01:28:00;93460.91;;;7.16;84.93
10466;BME280;5280;42.600;23.556;2023-04-10T01:30:34;93460.91;;;7.16;84.68
10466;BME280;5280;42.600;23.556;2023-04-10T01:33:02;93460.25;;;7.12;85.07
10466;BME280;5280;42.600;23.556;2023-04-10T01:35:31;93458.28;;;7.16;85.30
10466;BME280;5280;42.600;23.556;2023-04-10T01:38:01;93447.38;;;7.08;85.54
10466;BME280;5280;42.600;23.556;2023-04-10T01:40:30;93462.03;;;7.12;85.97
10466;BME280;5280;42.600;23.556;2023-04-10T01:42:59;93453.19;;;7.13;86.17
10466;BME280;5280;42.600;23.556;2023-04-10T01:45:27;93462.81;;;7.26;87.24
10466;BME280;5280;42.600;23.556;2023-04-10T01:47:56;93455.56;;;7.30;86.32
10466;BME280;5280;42.600;23.556;2023-04-10T01:50:23;93464.09;;;7.33;85.83
10466;BME280;5280;42.600;23.556;2023-04-10T01:52:53;93442.91;;;7.22;85.75
10466;BME280;5280;42.600;23.556;2023-04-10T01:55:22;93448.63;;;7.29;85.74
10466;BME280;5280;42.600;23.556;2023-04-10T01:57:49;93467.28;;;7.39;86.01
10466;BME280;5280;42.600;23.556;2023-04-10T02:00:17;93463.59;;;7.41;85.42
10466;BME280;5280;42.600;23.556;2023-04-10T02:02:45;93455.28;;;7.34;85.72
10466;BME280;5280;42.600;23.556;2023-04-10T02:05:15;93467.94;;;7.42;85.54
10466;BME280;5280;42.600;23.556;2023-04-10T02:07:46;93442.13;;;7.34;85.88
10466;BME280;5280;42.600;23.556;2023-04-10T02:10:19;93435.72;;;7.39;85.50
10466;BME280;5280;42.600;23.556;2023-04-10T02:12:51;93451.72;;;7.48;84.52
10466;BME280;5280;42.600;23.556;2023-04-10T02:15:22;93435.09;;;7.48;83.84
10466;BME280;5280;42.600;23.556;2023-04-10T02:17:50;93439.00;;;7.42;85.05
10466;BME280;5280;42.600;23.556;2023-04-10T02:20:19;93419.53;;;7.32;85.22
10466;BME280;5280;42.600;23.556;2023-04-10T02:22:47;93433.75;;;7.42;85.58
10466;BME280;5280;42.600;23.556;2023-04-10T02:25:15;93432.78;;;7.43;84.96
10466;BME280;5280;42.600;23.556;2023-04-10T02:27:42;93431.13;;;7.42;84.20
10466;BME280;5280;42.600;23.556;2023-04-10T02:30:09;93421.94;;;7.35;85.41
10466;BME280;5280;42.600;23.556;2023-04-10T02:32:36;93433.00;;;7.40;84.97
10466;BME280;5280;42.600;23.556;2023-04-10T02:35:04;93422.16;;;7.32;83.96
10466;BME280;5280;42.600;23.556;2023-04-10T02:37:32;93428.69;;;7.39;83.60
10466;BME280;5280;42.600;23.556;2023-04-10T02:40:00;93426.03;;;7.39;84.29
10466;BME280;5280;42.600;23.556;2023-04-10T02:42:27;93347.63;;;6.93;84.57
10466;BME280;5280;42.600;23.556;2023-04-10T02:44:57;93422.03;;;7.33;84.54
10466;BME280;5280;42.600;23.556;2023-04-10T02:47:24;93410.50;;;7.36;85.64
10466;BME280;5280;42.600;23.556;2023-04-10T02:49:50;93419.09;;;7.38;85.98
10466;BME280;5280;42.600;23.556;2023-04-10T02:52:20;93424.34;;;7.38;86.33
10466;BME280;5280;42.600;23.556;2023-04-10T02:54:48;93419.31;;;7.35;86.78
10466;BME280;5280;42.600;23.556;2023-04-10T02:57:16;93422.88;;;7.34;87.07
10466;BME280;5280;42.600;23.556;2023-04-10T02:59:42;93402.69;;;7.22;87.12
10466;BME280;5280;42.600;23.556;2023-04-10T03:02:10;93417.63;;;7.34;86.64
10466;BME280;5280;42.600;23.556;2023-04-10T03:04:36;93412.38;;;7.34;87.86
10466;BME280;5280;42.600;23.556;2023-04-10T03:07:04;93417.53;;;7.35;87.47
10466;BME280;5280;42.600;23.556;2023-04-10T03:09:31;93409.19;;;7.29;86.27
10466;BME280;5280;42.600;23.556;2023-04-10T03:11:59;93417.31;;;7.39;85.83
10466;BME280;5280;42.600;23.556;2023-04-10T03:14:26;93409.66;;;7.35;86.13
10466;BME280;5280;42.600;23.556;2023-04-10T03:16:53;93421.00;;;7.36;85.30
10466;BME280;5280;42.600;23.556;2023-04-10T03:19:24;93408.25;;;7.30;83.46
10466;BME280;5280;42.600;23.556;2023-04-10T03:21:51;93400.78;;;7.24;84.82
10466;BME280;5280;42.600;23.556;2023-04-10T03:24:18;93418.16;;;7.26;84.96
10466;BME280;5280;42.600;23.556;2023-04-10T03:26:45;93417.47;;;7.23;86.57
10466;BME280;5280;42.600;23.556;2023-04-10T03:29:13;93400.94;;;7.08;86.75
10466;BME280;5280;42.600;23.556;2023-04-10T03:31:45;93391.44;;;6.93;86.72
10466;BME280;5280;42.600;23.556;2023-04-10T03:34:12;93411.88;;;7.02;85.00
10466;BME280;5280;42.600;23.556;2023-04-10T03:36:39;93418.16;;;7.00;85.47
10466;BME280;5280;42.600;23.556;2023-04-10T03:39:05;93427.38;;;6.92;85.61
10466;BME280;5280;42.600;23.556;2023-04-10T03:41:32;93399.13;;;6.69;85.80
10466;BME280;5280;42.600;23.556;2023-04-10T03:43:59;93421.81;;;6.70;85.56
10466;BME280;5280;42.600;23.556;2023-04-10T03:46:28;93431.19;;;6.74;85.22
10466;BME280;5280;42.600;23.556;2023-04-10T03:48:55;93428.94;;;6.68;84.65
10466;BME280;5280;42.600;23.556;2023-04-10T03:51:23;93428.81;;;6.57;86.17
10466;BME280;5280;42.600;23.556;2023-04-10T03:53:51;93430.31;;;6.47;86.81
10466;BME280;5280;42.600;23.556;2023-04-10T03:56:18;93440.34;;;6.40;87.04
10466;BME280;5280;42.600;23.556;2023-04-10T03:58:45;93443.72;;;6.42;86.77
10466;BME280;5280;42.600;23.556;2023-04-10T04:01:12;93419.38;;;6.12;86.33
10466;BME280;5280;42.600;23.556;2023-04-10T04:03:40;93453.94;;;6.33;87.25
10466;BME280;5280;42.600;23.556;2023-04-10T04:06:07;93448.88;;;6.30;86.52
10466;BME280;5280;42.600;23.556;2023-04-10T04:08:33;93445.50;;;6.28;86.79
10466;BME280;5280;42.600;23.556;2023-04-10T04:11:03;93450.09;;;6.24;87.19
10466;BME280;5280;42.600;23.556;2023-04-10T04:13:30;93453.00;;;6.20;88.14
10466;BME280;5280;42.600;23.556;2023-04-10T04:16:00;93450.75;;;6.14;88.22
10466;BME280;5280;42.600;23.556;2023-04-10T04:18:27;93451.88;;;6.10;88.12
10466;BME280;5280;42.600;23.556;2023-04-10T04:20:55;93448.13;;;6.14;88.32
10466;BME280;5280;42.600;23.556;2023-04-10T04:23:22;93454.34;;;6.13;87.93
10466;BME280;5280;42.600;23.556;2023-04-10T04:25:49;93435.78;;;6.01;89.02
10466;BME280;5280;42.600;23.556;2023-04-10T04:28:20;93442.97;;;5.98;90.04
10466;BME280;5280;42.600;23.556;2023-04-10T04:30:47;93450.09;;;5.96;91.16
10466;BME280;5280;42.600;23.556;2023-04-10T04:33:13;93424.56;;;5.84;92.10
10466;BME280;5280;42.600;23.556;2023-04-10T04:35:40;93443.44;;;5.90;93.14
10466;BME280;5280;42.600;23.556;2023-04-10T04:38:08;93458.63;;;5.99;94.20
10466;BME280;5280;42.600;23.556;2023-04-10T04:40:35;93450.97;;;5.96;95.68
10466;BME280;5280;42.600;23.556;2023-04-10T04:43:02;93456.56;;;6.04;95.80
10466;BME280;5280;42.600;23.556;2023-04-10T04:45:29;93444.88;;;5.96;94.94
10466;BME280;5280;42.600;23.556;2023-04-10T04:47:56;93460.59;;;6.10;95.46
10466;BME280;5280;42.600;23.556;2023-04-10T04:50:23;93457.97;;;6.10;96.20
10466;BME280;5280;42.600;23.556;2023-04-10T04:52:50;93453.38;;;6.14;95.36
10466;BME280;5280;42.600;23.556;2023-04-10T04:55:18;93450.75;;;6.14;95.60
10466;BME280;5280;42.600;23.556;2023-04-10T04:57:45;93470.94;;;6.27;96.97
10466;BME280;5280;42.600;23.556;2023-04-10T05:00:12;93462.00;;;6.30;96.14
10466;BME280;5280;42.600;23.556;2023-04-10T05:02:39;93456.75;;;6.30;96.35
10466;BME280;5280;42.600;23.556;2023-04-10T05:05:06;93460.69;;;6.37;96.40
10466;BME280;5280;42.600;23.556;2023-04-10T05:07:33;93456.00;;;6.42;98.44
10466;BME280;5280;42.600;23.556;2023-04-10T05:10:00;93418.69;;;6.23;98.60
10466;BME280;5280;42.600;23.556;2023-04-10T05:12:29;93460.47;;;6.54;99.86
10466;BME280;5280;42.600;23.556;2023-04-10T05:14:56;93461.13;;;6.58;99.00
10466;BME280;5280;42.600;23.556;2023-04-10T05:17:23;93465.81;;;6.67;99.06
10466;BME280;5280;42.600;23.556;2023-04-10T05:19:50;93410.63;;;6.40;100.00
10466;BME280;5280;42.600;23.556;2023-04-10T05:22:17;93458.53;;;6.84;100.00
10466;BME280;5280;42.600;23.556;2023-04-10T05:24:44;93452.06;;;6.90;100.00
10466;BME280;5280;42.600;23.556;2023-04-10T05:27:11;93460.19;;;7.00;100.00
10466;BME280;5280;42.600;23.556;2023-04-10T05:29:39;93461.38;;;7.08;100.00
10466;BME280;5280;42.600;23.556;2023-04-10T05:32:06;93456.66;;;7.13;100.00
10466;BME280;5280;42.600;23.556;2023-04-10T05:34:32;93448.09;;;7.24;100.00
10466;BME280;5280;42.600;23.556;2023-04-10T05:36:59;93461.59;;;7.32;99.18
10466;BME280;5280;42.600;23.556;2023-04-10T05:39:26;93441.97;;;7.23;96.32
10466;BME280;5280;42.600;23.556;2023-04-10T05:41:53;93466.03;;;7.44;97.10
10466;BME280;5280;42.600;23.556;2023-04-10T05:44:20;93460.47;;;7.49;96.93
10466;BME280;5280;42.600;23.556;2023-04-10T05:46:48;93468.38;;;7.61;96.85
10466;BME280;5280;42.600;23.556;2023-04-10T05:49:15;93462.69;;;7.67;97.74
10466;BME280;5280;42.600;23.556;2023-04-10T05:51:42;93470.00;;;7.76;95.62
10466;BME280;5280;42.600;23.556;2023-04-10T05:54:09;93467.56;;;7.73;95.53
10466;BME280;5280;42.600;23.556;2023-04-10T05:56:36;93456.72;;;7.78;95.25
10466;BME280;5280;42.600;23.556;2023-04-10T05:59:03;93470.94;;;7.88;95.33
10466;BME280;5280;42.600;23.556;2023-04-10T06:01:31;93485.03;;;7.87;92.97
10466;BME280;5280;42.600;23.556;2023-04-10T06:03:59;93467.06;;;7.94;92.83
10466;BME280;5280;42.600;23.556;2023-04-10T06:06:27;93477.19;;;8.00;91.12
10466;BME280;5280;42.600;23.556;2023-04-10T06:08:54;93467.78;;;7.83;90.82
10466;BME280;5280;42.600;23.556;2023-04-10T06:11:21;93467.59;;;7.86;91.98
10466;BME280;5280;42.600;23.556;2023-04-10T06:13:48;93468.31;;;7.88;91.86
10466;BME280;5280;42.600;23.556;2023-04-10T06:16:15;93480.97;;;7.96;90.75
10466;BME280;5280;42.600;23.556;2023-04-10T06:18:42;93446.19;;;7.78;92.04
10466;BME280;5280;42.600;23.556;2023-04-10T06:21:10;93455.38;;;7.98;91.61
10466;BME280;5280;42.600;23.556;2023-04-10T06:23:37;93463.81;;;7.90;90.25
10466;BME280;5280;42.600;23.556;2023-04-10T06:26:04;93477.72;;;8.05;90.26
10466;BME280;5280;42.600;23.556;2023-04-10T06:28:31;93474.31;;;8.03;89.76
10466;BME280;5280;42.600;23.556;2023-04-10T06:30:58;93442.84;;;7.89;89.13
10466;BME280;5280;42.600;23.556;2023-04-10T06:33:27;93468.00;;;8.18;88.63
10466;BME280;5280;42.600;23.556;2023-04-10T06:35:54;93466.56;;;8.27;88.85
10466;BME280;5280;42.600;23.556;2023-04-10T06:38:23;93475.28;;;8.27;87.74
10466;BME280;5280;42.600;23.556;2023-04-10T06:40:49;93483.00;;;8.30;88.00
10466;BME280;5280;42.600;23.556;2023-04-10T06:43:16;93482.22;;;8.28;87.71
10466;BME280;5280;42.600;23.556;2023-04-10T06:45:44;93473.28;;;8.18;87.70
10466;BME280;5280;42.600;23.556;2023-04-10T06:48:11;93482.16;;;8.30;87.52
10466;BME280;5280;42.600;23.556;2023-04-10T06:50:37;93479.44;;;8.31;87.20
10466;BME280;5280;42.600;23.556;2023-04-10T06:53:04;93479.81;;;8.25;87.06
10466;BME280;5280;42.600;23.556;2023-04-10T06:55:33;93491.63;;;8.32;86.87
10466;BME280;5280;42.600;23.556;2023-04-10T06:58:02;93478.13;;;8.24;87.29
10466;BME280;5280;42.600;23.556;2023-04-10T07:00:29;93500.59;;;8.30;86.64
10466;BME280;5280;42.600;23.556;2023-04-10T07:02:56;93491.53;;;8.46;86.71
10466;BME280;5280;42.600;23.556;2023-04-10T07:05:22;93496.81;;;8.46;86.98
10466;BME280;5280;42.600;23.556;2023-04-10T07:07:49;93499.13;;;8.51;87.16
10466;BME280;5280;42.600;23.556;2023-04-10T07:10:16;93487.53;;;8.53;86.55
10466;BME280;5280;42.600;23.556;2023-04-10T07:12:45;93480.47;;;8.54;86.17
10466;BME280;5280;42.600;23.556;2023-04-10T07:15:11;93485.72;;;8.67;86.28
10466;BME280;5280;42.600;23.556;2023-04-10T07:17:38;93491.19;;;8.76;85.97
10466;BME280;5280;42.600;23.556;2023-04-10T07:20:06;93476.66;;;8.71;85.46
10466;BME280;5280;42.600;23.556;2023-04-10T07:22:33;93479.81;;;8.76;84.51
10466;BME280;5280;42.600;23.556;2023-04-10T07:25:00;93493.88;;;8.87;84.64
10466;BME280;5280;42.600;23.556;2023-04-10T07:27:27;93498.38;;;8.61;84.91
10466;BME280;5280;42.600;23.556;2023-04-10T07:29:55;93485.22;;;8.61;84.26
10466;BME280;5280;42.600;23.556;2023-04-10T07:32:22;93500.25;;;8.59;83.71
10466;BME280;5280;42.600;23.556;2023-04-10T07:34:49;93485.50;;;8.57;84.50
10466;BME280;5280;42.600;23.556;2023-04-10T07:37:16;93504.47;;;8.75;84.50
10466;BME280;5280;42.600;23.556;2023-04-10T07:39:43;93501.41;;;8.81;84.45
10466;BME280;5280;42.600;23.556;2023-04-10T07:42:10;93499.81;;;8.78;84.69
10466;BME280;5280;42.600;23.556;2023-04-10T07:44:37;93501.72;;;8.76;83.57
10466;BME280;5280;42.600;23.556;2023-04-10T07:47:06;93502.53;;;8.77;83.82
10466;BME280;5280;42.600;23.556;2023-04-10T07:49:33;93500.22;;;8.85;83.02
10466;BME280;5280;42.600;23.556;2023-04-10T07:52:00;93483.56;;;8.84;82.91
10466;BME280;5280;42.600;23.556;2023-04-10T07:54:30;93498.72;;;9.06;82.75
10466;BME280;5280;42.600;23.556;2023-04-10T07:56:58;93462.78;;;8.92;82.14
10466;BME280;5280;42.600;23.556;2023-04-10T07:59:25;93491.19;;;9.13;81.95
10466;BME280;5280;42.600;23.556;2023-04-10T08:01:52;93481.66;;;9.23;81.40
10466;BME280;5280;42.600;23.556;2023-04-10T08:04:21;93505.00;;;9.16;79.80
10466;BME280;5280;42.600;23.556;2023-04-10T08:06:48;93486.47;;;9.05;80.20
10466;BME280;5280;42.600;23.556;2023-04-10T08:09:15;93494.56;;;9.15;79.73
10466;BME280;5280;42.600;23.556;2023-04-10T08:11:42;93485.38;;;9.20;79.81
10466;BME280;5280;42.600;23.556;2023-04-10T08:14:09;93475.00;;;9.30;81.07
10466;BME280;5280;42.600;23.556;2023-04-10T08:16:37;93484.47;;;9.32;80.65
10466;BME280;5280;42.600;23.556;2023-04-10T08:19:04;93478.59;;;9.29;77.76
10466;BME280;5280;42.600;23.556;2023-04-10T08:21:33;93493.91;;;9.47;78.32
10466;BME280;5280;42.600;23.556;2023-04-10T08:24:01;93484.25;;;9.35;78.01
10466;BME280;5280;42.600;23.556;2023-04-10T08:26:28;93493.97;;;9.35;78.18
10466;BME280;5280;42.600;23.556;2023-04-10T08:28:56;93503.50;;;9.25;77.63
10466;BME280;5280;42.600;23.556;2023-04-10T08:31:25;93486.00;;;9.24;78.04
10466;BME280;5280;42.600;23.556;2023-04-10T08:33:52;93509.03;;;9.33;78.35
10466;BME280;5280;42.600;23.556;2023-04-10T08:36:19;93496.44;;;9.25;78.44
10466;BME280;5280;42.600;23.556;2023-04-10T08:38:50;93495.03;;;9.32;78.51
10466;BME280;5280;42.600;23.556;2023-04-10T08:41:18;93493.78;;;9.25;78.87
10466;BME280;5280;42.600;23.556;2023-04-10T08:43:49;93486.16;;;9.33;80.55
10466;BME280;5280;42.600;23.556;2023-04-10T08:46:16;93483.97;;;9.27;79.34
10466;BME280;5280;42.600;23.556;2023-04-10T08:48:46;93494.22;;;9.19;79.06
10466;BME280;5280;42.600;23.556;2023-04-10T08:51:19;93499.69;;;9.29;79.32
10466;BME280;5280;42.600;23.556;2023-04-10T08:53:50;93489.56;;;9.46;79.84
10466;BME280;5280;42.600;23.556;2023-04-10T08:56:19;93493.47;;;9.54;78.78
10466;BME280;5280;42.600;23.556;2023-04-10T08:58:48;93490.47;;;9.58;78.05
10466;BME280;5280;42.600;23.556;2023-04-10T09:01:19;93489.78;;;9.56;77.99
10466;BME280;5280;42.600;23.556;2023-04-10T09:03:47;93478.75;;;9.62;78.16
10466;BME280;5280;42.600;23.556;2023-04-10T09:06:14;93475.81;;;9.78;78.44
10466;BME280;5280;42.600;23.556;2023-04-10T09:08:41;93478.72;;;9.86;77.14
10466;BME280;5280;42.600;23.556;2023-04-10T09:11:09;93472.75;;;9.95;77.83
10466;BME280;5280;42.600;23.556;2023-04-10T09:13:39;93467.94;;;9.89;74.20
10466;BME280;5280;42.600;23.556;2023-04-10T09:16:07;93474.94;;;10.01;73.35
10466;BME280;5280;42.600;23.556;2023-04-10T09:18:40;93473.88;;;10.15;75.24
10466;BME280;5280;42.600;23.556;2023-04-10T09:21:08;93463.22;;;10.16;75.47
10466;BME280;5280;42.600;23.556;2023-04-10T09:23:35;93462.75;;;10.22;74.75
10466;BME280;5280;42.600;23.556;2023-04-10T09:26:10;93464.56;;;10.22;74.30
10466;BME280;5280;42.600;23.556;2023-04-10T09:28:55;93464.69;;;10.31;72.76
10466;BME280;5280;42.600;23.556;2023-04-10T09:31:28;93439.44;;;10.16;72.11
10466;BME280;5280;42.600;23.556;2023-04-10T09:34:06;93463.16;;;10.40;71.24
10466;BME280;5280;42.600;23.556;2023-04-10T09:36:34;93441.91;;;10.30;71.56
10466;BME280;5280;42.600;23.556;2023-04-10T09:39:02;93461.94;;;10.33;71.17
10466;BME280;5280;42.600;23.556;2023-04-10T09:41:30;93455.09;;;10.42;71.01
10466;BME280;5280;42.600;23.556;2023-04-10T09:44:07;93458.09;;;10.37;66.72
10466;BME280;5280;42.600;23.556;2023-04-10T09:46:34;93453.44;;;10.41;65.51
10466;BME280;5280;42.600;23.556;2023-04-10T09:49:01;93455.94;;;10.53;65.68
10466;BME280;5280;42.600;23.556;2023-04-10T09:51:32;93437.94;;;10.58;65.29
10466;BME280;5280;42.600;23.556;2023-04-10T09:54:00;93448.63;;;10.68;66.58
10466;BME280;5280;42.600;23.556;2023-04-10T09:56:28;93434.44;;;10.58;68.19
10466;BME280;5280;42.600;23.556;2023-04-10T09:58:58;93435.28;;;10.58;69.36
10466;BME280;5280;42.600;23.556;2023-04-10T10:01:26;93423.66;;;10.61;68.79
10466;BME280;5280;42.600;23.556;2023-04-10T10:03:54;93437.56;;;10.85;67.82
10466;BME280;5280;42.600;23.556;2023-04-10T10:06:23;93447.78;;;10.90;67.25
10466;BME280;5280;42.600;23.556;2023-04-10T10:08:50;93432.03;;;10.88;67.55
10466;BME280;5280;42.600;23.556;2023-04-10T10:11:20;93439.94;;;10.99;66.53
10466;BME280;5280;42.600;23.556;2023-04-10T10:13:49;93437.31;;;10.99;64.41
10466;BME280;5280;42.600;23.556;2023-04-10T10:16:21;93431.28;;;11.08;64.43
10466;BME280;5280;42.600;23.556;2023-04-10T10:18:58;93433.75;;;11.21;65.29
10466;BME280;5280;42.600;23.556;2023-04-10T10:21:27;93405.03;;;11.16;64.24
10466;BME280;5280;42.600;23.556;2023-04-10T10:23:58;93414.63;;;11.29;65.49
10466;BME280;5280;42.600;23.556;2023-04-10T10:26:27;93365.63;;;11.13;65.41
10466;BME280;5280;42.600;23.556;2023-04-10T10:28:55;93425.34;;;11.59;61.61
10466;BME280;5280;42.600;23.556;2023-04-10T10:31:24;93409.44;;;11.70;61.82
10466;BME280;5280;42.600;23.556;2023-04-10T10:34:00;93350.78;;;11.54;59.44
10466;BME280;5280;42.600;23.556;2023-04-10T10:36:29;93408.78;;;12.10;56.90
10466;BME280;5280;42.600;23.556;2023-04-10T10:39:08;93402.34;;;12.12;57.54
10466;BME280;5280;42.600;23.556;2023-04-10T10:41:46;93406.91;;;12.31;56.31
10466;BME280;5280;42.600;23.556;2023-04-10T10:44:25;93393.47;;;12.43;56.11
10466;BME280;5280;42.600;23.556;2023-04-10T10:47:03;93387.50;;;12.51;54.74
10466;BME280;5280;42.600;23.556;2023-04-10T10:49:55;93381.53;;;12.59;54.89
10466;BME280;5280;42.600;23.556;2023-04-10T10:52:43;93395.53;;;12.70;54.05
10466;BME280;5280;42.600;23.556;2023-04-10T10:55:30;93372.66;;;12.69;53.50
10466;BME280;5280;42.600;23.556;2023-04-10T10:58:00;93361.91;;;12.40;53.96
10466;BME280;5280;42.600;23.556;2023-04-10T11:03:29;93373.91;;;12.35;55.05
10466;BME280;5280;42.600;23.556;2023-04-10T11:05:58;93361.25;;;12.18;54.37
10466;BME280;5280;42.600;23.556;2023-04-10T11:08:40;93360.50;;;12.06;55.25
10466;BME280;5280;42.600;23.556;2023-04-10T11:11:10;93345.63;;;12.15;55.30
10466;BME280;5280;42.600;23.556;2023-04-10T11:13:41;93295.78;;;11.99;53.70
10466;BME280;5280;42.600;23.556;2023-04-10T11:16:09;93361.66;;;12.43;51.53
10466;BME280;5280;42.600;23.556;2023-04-10T11:19:02;93363.97;;;12.67;53.53
10466;BME280;5280;42.600;23.556;2023-04-10T11:21:30;93374.31;;;12.70;51.80
10466;BME280;5280;42.600;23.556;2023-04-10T11:24:04;93348.59;;;12.61;51.53
10466;BME280;5280;42.600;23.556;2023-04-10T11:26:49;93348.94;;;12.77;52.79
10466;BME280;5280;42.600;23.556;2023-04-10T11:29:34;93358.72;;;12.86;50.54
10466;BME280;5280;42.600;23.556;2023-04-10T11:32:02;93348.41;;;12.83;52.20
10466;BME280;5280;42.600;23.556;2023-04-10T11:34:31;93360.13;;;12.90;51.88
10466;BME280;5280;42.600;23.556;2023-04-10T11:36:59;93339.75;;;12.81;53.60
10466;BME280;5280;42.600;23.556;2023-04-10T11:39:29;93355.22;;;12.76;54.88
10466;BME280;5280;42.600;23.556;2023-04-10T11:41:56;93363.34;;;12.44;55.98
10466;BME280;5280;42.600;23.556;2023-04-10T11:44:28;93361.44;;;12.26;56.83
10466;BME280;5280;42.600;23.556;2023-04-10T11:46:57;93370.00;;;12.08;58.08
10466;BME280;5280;42.600;23.556;2023-04-10T11:49:25;93342.22;;;12.03;60.15
10466;BME280;5280;42.600;23.556;2023-04-10T11:51:54;93354.56;;;12.14;61.73
10466;BME280;5280;42.600;23.556;2023-04-10T11:54:24;93355.88;;;12.29;62.95
10466;BME280;5280;42.600;23.556;2023-04-10T11:56:57;93366.59;;;12.27;57.56
10466;BME280;5280;42.600;23.556;2023-04-10T11:59:26;93360.16;;;12.20;58.83
10466;BME280;5280;42.600;23.556;2023-04-10T12:02:01;93354.22;;;12.07;61.57
10466;BME280;5280;42.600;23.556;2023-04-10T12:04:28;93355.44;;;12.24;63.09
10466;BME280;5280;42.600;23.556;2023-04-10T12:06:57;93346.19;;;12.18;64.29
10466;BME280;5280;42.600;23.556;2023-04-10T12:09:23;93350.28;;;12.01;64.82
10466;BME280;5280;42.600;23.556;2023-04-10T12:11:53;93349.84;;;11.96;63.57
10466;BME280;5280;42.600;23.556;2023-04-10T12:14:29;93357.16;;;12.04;60.99
10466;BME280;5280;42.600;23.556;2023-04-10T12:16:57;93356.03;;;12.06;61.20
10466;BME280;5280;42.600;23.556;2023-04-10T12:19:24;93350.34;;;12.11;61.75
10466;BME280;5280;42.600;23.556;2023-04-10T12:21:51;93352.59;;;12.16;63.32
10466;BME280;5280;42.600;23.556;2023-04-10T12:24:42;93342.34;;;12.01;62.62
10466;BME280;5280;42.600;23.556;2023-04-10T12:27:15;93335.28;;;12.12;62.35
10466;BME280;5280;42.600;23.556;2023-04-10T12:29:42;93338.38;;;12.17;59.37
10466;BME280;5280;42.600;23.556;2023-04-10T12:32:09;93327.81;;;12.26;57.46
10466;BME280;5280;42.600;23.556;2023-04-10T12:34:37;93331.81;;;12.51;57.04
10466;BME280;5280;42.600;23.556;2023-04-10T12:37:04;93324.91;;;12.60;56.13
10466;BME280;5280;42.600;23.556;2023-04-10T12:39:31;93333.78;;;12.49;59.19
10466;BME280;5280;42.600;23.556;2023-04-10T12:42:13;93320.13;;;12.54;59.75
10466;BME280;5280;42.600;23.556;2023-04-10T12:44:50;93313.56;;;12.48;59.59
10466;BME280;5280;42.600;23.556;2023-04-10T12:47:17;93309.91;;;12.39;60.55
10466;BME280;5280;42.600;23.556;2023-04-10T12:50:02;93316.69;;;12.32;60.85
10466;BME280;5280;42.600;23.556;2023-04-10T12:52:29;93300.59;;;12.15;59.75
10466;BME280;5280;42.600;23.556;2023-04-10T12:55:08;93320.47;;;12.30;60.17
10466;BME280;5280;42.600;23.556;2023-04-10T12:57:37;93307.19;;;12.20;59.46
10466;BME280;5280;42.600;23.556;2023-04-10T13:00:05;93310.59;;;12.11;59.23
10466;BME280;5280;42.600;23.556;2023-04-10T13:02:34;93311.00;;;12.06;60.13
10466;BME280;5280;42.600;23.556;2023-04-10T13:05:01;93307.66;;;12.04;61.74
10466;BME280;5280;42.600;23.556;2023-04-10T13:07:28;93285.00;;;11.91;62.77
10466;BME280;5280;42.600;23.556;2023-04-10T13:09:55;93298.72;;;11.75;63.82
10466;BME280;5280;42.600;23.556;2023-04-10T13:12:22;93300.38;;;11.76;65.96
10466;BME280;5280;42.600;23.556;2023-04-10T13:14:52;93294.03;;;11.68;68.28
10466;BME280;5280;42.600;23.556;2023-04-10T13:17:19;93295.84;;;11.46;68.40
10466;BME280;5280;42.600;23.556;2023-04-10T13:19:46;93297.72;;;11.35;68.77